createdAt,value
2022-09-13T00:01:29.894Z,54.38
2022-09-13T00:03:57.001Z,54.53
2022-09-13T00:06:23.669Z,54.72
2022-09-13T00:08:50.626Z,54.60
2022-09-13T00:11:19.042Z,54.49
2022-09-13T00:13:46.022Z,53.69
2022-09-13T00:16:13.787Z,54.68
2022-09-13T00:18:41.143Z,54.32
2022-09-13T00:21:09.471Z,55.54
2022-09-13T00:23:36.574Z,54.89
2022-09-13T00:26:04.548Z,54.85
2022-09-13T00:28:31.212Z,55.05
2022-09-13T00:31:01.629Z,54.82
2022-09-13T00:33:28.589Z,55.32
2022-09-13T00:35:55.439Z,55.66
2022-09-13T00:38:22.407Z,56.19
2022-09-13T00:40:49.359Z,55.14
2022-09-13T00:43:19.969Z,54.65
2022-09-13T00:45:47.106Z,55.12
2022-09-13T00:48:22.128Z,56.20
2022-09-13T00:50:51.111Z,55.28
2022-09-13T00:53:19.571Z,54.36
2022-09-13T00:55:52.076Z,54.73
2022-09-13T00:58:21.520Z,55.00
2022-09-13T01:00:48.266Z,54.51
2022-09-13T01:03:15.205Z,53.97
2022-09-13T01:05:49.448Z,54.42
2022-09-13T01:08:22.472Z,54.30
2022-09-13T01:10:52.691Z,54.90
2022-09-13T01:13:32.174Z,54.54
2022-09-13T01:15:59.537Z,54.11
2022-09-13T01:18:26.289Z,54.84
2022-09-13T01:20:52.946Z,54.78
2022-09-13T01:23:19.874Z,55.02
2022-09-13T01:25:58.602Z,55.13
2022-09-13T01:28:41.608Z,54.47
2022-09-13T01:31:18.015Z,54.18
2022-09-13T01:34:04.250Z,53.83
2022-09-13T01:37:05.294Z,53.90
2022-09-13T01:39:32.242Z,54.63
2022-09-13T01:42:05.622Z,54.23
2022-09-13T01:44:47.883Z,54.12
2022-09-13T01:47:17.862Z,54.28
2022-09-13T01:50:00.129Z,54.32
2022-09-13T01:52:42.976Z,53.80
2022-09-13T01:55:39.358Z,53.33
2022-09-13T01:58:14.822Z,54.06
2022-09-13T02:00:48.402Z,54.00
2022-09-13T02:03:18.379Z,53.90
2022-09-13T02:05:45.531Z,54.69
2022-09-13T02:08:16.407Z,53.99
2022-09-13T02:10:45.836Z,53.52
2022-09-13T02:13:14.070Z,53.93
2022-09-13T02:15:42.069Z,54.36
2022-09-13T02:18:09.737Z,53.82
2022-09-13T02:20:37.349Z,53.73
2022-09-13T02:23:07.358Z,54.25
2022-09-13T02:25:34.358Z,54.54
2022-09-13T02:28:02.846Z,53.49
2022-09-13T02:30:31.375Z,54.69
2022-09-13T02:32:59.756Z,54.33
2022-09-13T02:35:37.247Z,54.37
2022-09-13T02:38:08.991Z,54.30
2022-09-13T02:40:38.102Z,54.30
2022-09-13T02:43:05.812Z,54.80
2022-09-13T02:45:34.200Z,54.65
2022-09-13T02:48:03.212Z,54.38
2022-09-13T02:50:33.285Z,54.05
2022-09-13T02:52:59.987Z,54.41
2022-09-13T02:55:27.004Z,53.86
2022-09-13T02:58:01.012Z,54.19
2022-09-13T03:00:29.018Z,54.33
2022-09-13T03:02:56.343Z,54.66
2022-09-13T03:05:23.128Z,54.12
2022-09-13T03:07:50.096Z,54.42
2022-09-13T03:10:16.832Z,54.27
2022-09-13T03:12:46.649Z,54.32
2022-09-13T03:15:33.301Z,54.40
2022-09-13T03:18:10.806Z,55.11
2022-09-13T03:20:49.902Z,53.48
2022-09-13T03:23:21.533Z,54.64
2022-09-13T03:25:54.712Z,54.66
2022-09-13T03:28:31.718Z,54.68
2022-09-13T03:31:08.915Z,54.34
2022-09-13T03:33:44.286Z,53.43
2022-09-13T03:36:11.214Z,54.18
2022-09-13T03:38:39.910Z,54.88
2022-09-13T03:41:08.081Z,54.43
2022-09-13T03:43:51.882Z,54.96
2022-09-13T03:46:20.287Z,54.29
2022-09-13T03:48:47.294Z,54.45
2022-09-13T03:51:14.018Z,53.86
2022-09-13T03:53:46.366Z,54.07
2022-09-13T03:56:17.194Z,53.70
2022-09-13T03:58:44.045Z,54.60
2022-09-13T04:01:10.828Z,54.12
2022-09-13T04:03:38.294Z,54.56
2022-09-13T04:06:05.168Z,54.35
2022-09-13T04:08:32.221Z,54.44
2022-09-13T04:10:59.244Z,54.97
2022-09-13T04:13:26.957Z,54.03
2022-09-13T04:15:54.538Z,55.15
2022-09-13T04:18:21.606Z,55.42
2022-09-13T04:20:55.219Z,54.90
2022-09-13T04:23:22.607Z,54.79
2022-09-13T04:25:49.328Z,55.71
2022-09-13T04:28:16.604Z,55.21
2022-09-13T04:30:46.987Z,55.29
2022-09-13T04:33:13.880Z,55.19
2022-09-13T04:35:41.023Z,54.71
2022-09-13T04:38:08.952Z,54.47
2022-09-13T04:40:35.780Z,54.86
2022-09-13T04:43:02.975Z,55.73
2022-09-13T04:45:30.407Z,55.38
2022-09-13T04:47:57.283Z,55.21
2022-09-13T04:50:24.814Z,55.39
2022-09-13T04:52:51.985Z,55.41
2022-09-13T04:55:18.723Z,55.04
2022-09-13T04:57:48.079Z,55.40
2022-09-13T05:00:16.506Z,55.35
2022-09-13T05:02:43.152Z,55.78
2022-09-13T05:05:09.884Z,55.52
2022-09-13T05:07:36.852Z,55.65
2022-09-13T05:10:03.729Z,56.08
2022-09-13T05:12:31.135Z,56.47
2022-09-13T05:14:58.102Z,56.66
2022-09-13T05:17:24.832Z,56.34
2022-09-13T05:19:54.329Z,56.18
2022-09-13T05:22:22.585Z,55.88
2022-09-13T05:24:49.472Z,55.95
2022-09-13T05:27:16.191Z,56.12
2022-09-13T05:29:43.773Z,55.46
2022-09-13T05:32:10.451Z,53.88
2022-09-13T05:34:37.214Z,54.58
2022-09-13T05:37:04.221Z,56.14
2022-09-13T05:39:48.491Z,54.53
2022-09-13T05:42:18.034Z,55.29
2022-09-13T05:44:44.716Z,55.84
2022-09-13T05:47:13.725Z,55.29
2022-09-13T05:50:01.916Z,55.79
2022-09-13T05:52:27.713Z,56.33
2022-09-13T05:54:54.658Z,53.62
2022-09-13T05:57:21.360Z,54.76
2022-09-13T05:59:48.111Z,54.38
2022-09-13T06:02:15.172Z,53.70
2022-09-13T06:04:42.177Z,54.68
2022-09-13T06:07:11.066Z,54.16
2022-09-13T06:09:37.894Z,53.33
2022-09-13T06:12:05.169Z,53.25
2022-09-13T06:14:31.878Z,53.98
2022-09-13T06:16:58.816Z,52.79
2022-09-13T06:19:25.829Z,52.93
2022-09-13T06:21:52.514Z,53.12
2022-09-13T06:24:19.253Z,53.20
2022-09-13T06:26:46.320Z,52.64
2022-09-13T06:29:15.331Z,53.81
2022-09-13T06:31:45.149Z,52.29
2022-09-13T06:34:16.322Z,52.34
2022-09-13T06:36:43.211Z,51.54
2022-09-13T06:39:09.936Z,52.28
2022-09-13T06:41:37.536Z,51.88
2022-09-13T06:44:04.243Z,51.64
2022-09-13T06:46:31.860Z,51.56
2022-09-13T06:48:59.401Z,51.65
2022-09-13T06:51:26.355Z,51.63
2022-09-13T06:53:53.547Z,51.32
2022-09-13T06:56:21.586Z,50.73
2022-09-13T06:58:49.136Z,49.88
2022-09-13T07:01:26.263Z,48.67
2022-09-13T07:03:54.468Z,47.49
2022-09-13T07:06:24.023Z,47.35
2022-09-13T07:08:52.275Z,45.57
2022-09-13T07:11:20.750Z,43.93
2022-09-13T07:13:48.399Z,41.98
2022-09-13T07:16:17.166Z,44.05
2022-09-13T07:18:44.193Z,40.77
2022-09-13T07:21:11.409Z,39.29
2022-09-13T07:23:38.814Z,38.45
2022-09-13T07:26:06.311Z,40.27
2022-09-13T07:28:35.504Z,39.31
2022-09-13T07:31:16.264Z,38.65
2022-09-13T07:33:44.059Z,39.28
2022-09-13T07:36:11.836Z,39.41
2022-09-13T07:38:39.575Z,37.87
2022-09-13T07:41:08.965Z,36.95
2022-09-13T07:43:36.147Z,37.17
2022-09-13T07:46:04.138Z,36.67
2022-09-13T07:48:34.023Z,36.18
2022-09-13T07:51:01.927Z,35.25
2022-09-13T07:53:29.029Z,36.72
2022-09-13T07:56:02.691Z,37.61
2022-09-13T07:58:29.795Z,37.97
2022-09-13T08:01:01.515Z,37.96
2022-09-13T08:03:30.207Z,35.07
2022-09-13T08:05:57.005Z,37.47
2022-09-13T08:08:23.733Z,36.14
2022-09-13T08:10:50.812Z,34.38
2022-09-13T08:13:17.775Z,35.15
2022-09-13T08:15:46.008Z,36.04
2022-09-13T08:18:13.153Z,36.41
2022-09-13T08:20:39.894Z,38.20
2022-09-13T08:23:07.368Z,37.64
2022-09-13T08:25:35.068Z,37.30
2022-09-13T08:28:03.626Z,36.82
2022-09-13T08:30:33.247Z,35.33
2022-09-13T08:33:01.380Z,35.46
2022-09-13T08:35:28.404Z,35.80
2022-09-13T08:37:55.274Z,35.82
2022-09-13T08:40:22.719Z,35.69
2022-09-13T08:42:49.533Z,36.17
2022-09-13T08:45:16.517Z,33.87
2022-09-13T08:47:50.144Z,36.59
2022-09-13T08:50:21.695Z,35.50
2022-09-13T08:52:48.594Z,36.29
2022-09-13T08:55:35.639Z,33.83
2022-09-13T08:58:02.545Z,35.61
2022-09-13T09:00:34.644Z,35.59
2022-09-13T09:03:20.212Z,35.66
2022-09-13T09:05:48.085Z,36.83
2022-09-13T09:08:21.064Z,35.87
2022-09-13T09:10:50.113Z,34.32
2022-09-13T09:13:24.305Z,32.78
2022-09-13T09:15:52.732Z,33.79
2022-09-13T09:18:26.742Z,35.63
2022-09-13T09:20:54.264Z,35.22
2022-09-13T09:23:22.273Z,34.97
2022-09-13T09:25:54.547Z,33.98
2022-09-13T09:28:21.792Z,31.51
2022-09-13T09:30:57.428Z,34.04
2022-09-13T09:33:39.966Z,33.12
2022-09-13T09:36:18.970Z,33.08
2022-09-13T09:38:46.123Z,32.97
2022-09-13T09:41:14.505Z,35.62
2022-09-13T09:43:52.562Z,34.20
2022-09-13T09:46:21.314Z,33.67
2022-09-13T09:48:55.023Z,34.83
2022-09-13T09:51:22.219Z,34.71
2022-09-13T09:53:50.397Z,34.54
2022-09-13T09:56:17.190Z,34.01
2022-09-13T09:58:45.209Z,35.90
2022-09-13T10:01:30.053Z,33.69
2022-09-13T10:04:08.663Z,35.09
2022-09-13T10:06:36.268Z,34.17
2022-09-13T10:09:15.128Z,34.71
2022-09-13T10:11:45.063Z,36.76
2022-09-13T10:14:27.636Z,33.33
2022-09-13T10:17:15.422Z,34.58
2022-09-13T10:19:51.319Z,33.19
2022-09-13T10:22:18.002Z,34.25
2022-09-13T10:24:45.013Z,33.48
2022-09-13T10:27:22.576Z,32.50
2022-09-13T10:29:50.230Z,35.11
2022-09-13T10:32:19.772Z,34.13
2022-09-13T10:34:46.611Z,34.28
2022-09-13T10:37:15.270Z,34.53
2022-09-13T10:39:53.515Z,34.49
2022-09-13T10:42:21.447Z,32.06
2022-09-13T10:45:11.510Z,33.58
2022-09-13T10:47:38.466Z,33.69
2022-09-13T10:50:16.417Z,32.83
2022-09-13T10:52:45.099Z,33.38
2022-09-13T10:55:34.969Z,30.87
2022-09-13T10:58:01.885Z,32.18
2022-09-13T11:00:32.808Z,33.05
2022-09-13T11:03:06.285Z,32.67
2022-09-13T11:05:44.296Z,32.29
2022-09-13T11:08:26.238Z,33.33
2022-09-13T11:10:53.195Z,33.57
2022-09-13T11:13:26.805Z,33.77
2022-09-13T11:16:09.655Z,32.97
2022-09-13T11:18:48.771Z,33.24
2022-09-13T11:21:19.224Z,35.07
2022-09-13T11:23:50.072Z,30.69
2022-09-13T11:26:38.604Z,31.24
2022-09-13T11:29:25.548Z,31.56
2022-09-13T11:32:01.586Z,29.48
2022-09-13T11:34:35.233Z,30.55
2022-09-13T11:37:04.956Z,33.55
2022-09-13T11:39:50.427Z,34.45
2022-09-13T11:42:28.002Z,32.39
2022-09-13T11:45:10.372Z,34.32
2022-09-13T11:47:41.215Z,34.01
2022-09-13T11:50:20.351Z,35.13
2022-09-13T11:52:50.512Z,32.50
2022-09-13T11:55:18.896Z,33.44
2022-09-13T11:57:48.484Z,34.02
2022-09-13T12:00:16.377Z,32.81
2022-09-13T12:02:49.670Z,32.87
2022-09-13T12:05:23.895Z,32.26
2022-09-13T12:08:06.856Z,31.05
2022-09-13T12:10:33.597Z,30.09
2022-09-13T12:13:01.653Z,30.06
2022-09-13T12:15:35.969Z,30.03
2022-09-13T12:18:07.594Z,30.44
2022-09-13T12:20:36.073Z,32.13
2022-09-13T12:23:05.047Z,31.93
2022-09-13T12:25:42.660Z,31.03
2022-09-13T12:28:15.545Z,31.04
2022-09-13T12:31:02.659Z,30.53
2022-09-13T12:33:29.641Z,31.02
2022-09-13T12:36:05.003Z,32.53
2022-09-13T12:38:31.977Z,33.60
2022-09-13T12:41:17.624Z,34.77
2022-09-13T12:43:45.003Z,35.06
2022-09-13T12:46:13.134Z,31.98
2022-09-13T12:48:42.958Z,32.94
2022-09-13T12:51:28.850Z,34.40
2022-09-13T12:54:00.107Z,35.17
2022-09-13T12:56:41.901Z,36.36
2022-09-13T12:59:35.730Z,35.14
2022-09-13T13:02:04.071Z,34.42
2022-09-13T13:04:32.556Z,34.72
2022-09-13T13:07:00.479Z,34.96
2022-09-13T13:09:36.709Z,34.90
2022-09-13T13:12:04.616Z,35.53
2022-09-13T13:14:37.674Z,35.98
2022-09-13T13:17:23.573Z,34.70
2022-09-13T13:19:51.103Z,32.57
2022-09-13T13:22:36.702Z,32.62
2022-09-13T13:25:22.581Z,33.39
2022-09-13T13:27:51.680Z,33.29
2022-09-13T13:30:40.835Z,34.08
2022-09-13T13:33:13.582Z,33.91
2022-09-13T13:35:41.133Z,32.06
2022-09-13T13:38:15.495Z,32.17
2022-09-13T13:40:42.588Z,34.05
2022-09-13T13:43:28.330Z,33.07
2022-09-13T13:46:00.143Z,31.50
2022-09-13T13:48:40.152Z,34.70
2022-09-13T13:51:18.079Z,34.21
2022-09-13T13:53:53.298Z,32.99
2022-09-13T13:56:21.959Z,33.14
2022-09-13T13:58:56.476Z,33.11
2022-09-13T14:01:25.118Z,31.50
2022-09-13T14:03:55.188Z,32.00
2022-09-13T14:06:33.368Z,32.10
2022-09-13T14:09:03.538Z,32.22
2022-09-13T14:11:33.377Z,35.24
2022-09-13T14:14:06.400Z,35.06
2022-09-13T14:16:39.469Z,34.39
2022-09-13T14:19:09.658Z,35.22
2022-09-13T14:21:36.463Z,34.73
2022-09-13T14:24:20.792Z,35.51
2022-09-13T14:26:48.160Z,35.37
2022-09-13T14:29:16.674Z,34.19
2022-09-13T14:31:45.755Z,32.44
2022-09-13T14:34:25.125Z,33.50
2022-09-13T14:36:53.721Z,34.20
2022-09-13T14:39:20.748Z,35.15
2022-09-13T14:41:47.675Z,35.44
2022-09-13T14:44:25.116Z,34.65
2022-09-13T14:47:07.674Z,35.29
2022-09-13T14:49:40.239Z,35.22
2022-09-13T14:52:09.167Z,35.54
2022-09-13T14:54:39.903Z,34.69
2022-09-13T14:57:07.692Z,35.93
2022-09-13T14:59:38.061Z,34.15
2022-09-13T15:02:05.742Z,33.84
2022-09-13T15:04:32.778Z,33.32
2022-09-13T15:07:09.890Z,33.99
2022-09-13T15:09:38.417Z,35.22
2022-09-13T15:12:05.545Z,35.36
2022-09-13T15:14:37.365Z,35.15
2022-09-13T15:17:11.443Z,33.99
2022-09-13T15:19:42.121Z,33.60
2022-09-13T15:22:15.362Z,35.46
2022-09-13T15:24:46.488Z,34.88
2022-09-13T15:27:24.482Z,35.90
2022-09-13T15:29:52.221Z,35.27
2022-09-13T15:32:23.681Z,35.57
2022-09-13T15:34:51.116Z,35.87
2022-09-13T15:37:19.815Z,37.06
2022-09-13T15:39:51.741Z,38.04
2022-09-13T15:42:18.571Z,39.91
2022-09-13T15:44:45.318Z,40.77
2022-09-13T15:47:16.086Z,40.76
2022-09-13T15:49:47.213Z,39.22
2022-09-13T15:52:14.326Z,39.50
2022-09-13T15:54:41.912Z,39.17
2022-09-13T15:57:28.597Z,39.43
2022-09-13T15:59:56.612Z,38.90
2022-09-13T16:02:25.755Z,38.81
2022-09-13T16:04:53.072Z,41.16
2022-09-13T16:07:19.993Z,40.86
2022-09-13T16:09:46.882Z,41.21
2022-09-13T16:12:14.138Z,39.86
2022-09-13T16:14:41.053Z,41.27
2022-09-13T16:17:10.894Z,41.75
2022-09-13T16:19:39.349Z,43.38
2022-09-13T16:22:08.705Z,44.41
2022-09-13T16:24:39.149Z,44.42
2022-09-13T16:27:05.891Z,44.55
2022-09-13T16:29:32.593Z,44.49
2022-09-13T16:32:01.614Z,44.91
2022-09-13T16:34:28.392Z,45.82
2022-09-13T16:36:55.281Z,45.77
2022-09-13T16:39:22.250Z,47.23
2022-09-13T16:41:49.113Z,48.36
2022-09-13T16:44:16.149Z,49.59
2022-09-13T16:46:43.166Z,49.71
2022-09-13T16:49:10.224Z,49.24
2022-09-13T16:51:37.444Z,49.45
2022-09-13T16:54:04.973Z,48.90
2022-09-13T16:56:32.133Z,48.93
2022-09-13T16:58:58.817Z,47.78
2022-09-13T17:01:27.007Z,46.36
2022-09-13T17:03:55.066Z,47.21
2022-09-13T17:06:26.359Z,47.76
2022-09-13T17:09:01.680Z,47.69
2022-09-13T17:11:29.722Z,47.78
2022-09-13T17:13:56.978Z,46.85
2022-09-13T17:16:28.481Z,47.43
2022-09-13T17:18:57.288Z,47.26
2022-09-13T17:21:25.272Z,47.34
2022-09-13T17:23:52.107Z,47.07
2022-09-13T17:26:18.926Z,47.23
2022-09-13T17:28:46.105Z,47.29
2022-09-13T17:31:12.889Z,47.96
2022-09-13T17:33:39.636Z,47.98
2022-09-13T17:36:16.022Z,48.40
2022-09-13T17:38:43.064Z,48.06
2022-09-13T17:41:11.413Z,48.61
2022-09-13T17:43:38.726Z,48.48
2022-09-13T17:46:06.261Z,49.62
2022-09-13T17:48:33.501Z,50.00
2022-09-13T17:51:04.684Z,50.02
2022-09-13T17:53:31.481Z,49.32
2022-09-13T17:55:59.314Z,50.17
2022-09-13T17:58:27.044Z,49.80
2022-09-13T18:01:22.864Z,49.98
2022-09-13T18:03:53.791Z,49.96
2022-09-13T18:06:20.744Z,50.37
2022-09-13T18:08:47.987Z,51.74
2022-09-13T18:11:19.438Z,50.92
2022-09-13T18:13:48.939Z,51.24
2022-09-13T18:16:21.281Z,51.29
2022-09-13T18:18:49.141Z,52.18
2022-09-13T18:21:19.358Z,51.57
2022-09-13T18:23:47.160Z,51.79
2022-09-13T18:26:15.939Z,51.59
2022-09-13T18:28:46.384Z,50.94
2022-09-13T18:31:14.520Z,51.08
2022-09-13T18:33:42.165Z,51.89
2022-09-13T18:36:11.751Z,51.47
2022-09-13T18:38:39.899Z,52.15
2022-09-13T18:41:11.562Z,53.00
2022-09-13T18:43:39.631Z,52.18
2022-09-13T18:46:07.745Z,52.82
2022-09-13T18:48:35.735Z,51.80
2022-09-13T18:51:03.209Z,51.41
2022-09-13T18:53:34.745Z,51.27
2022-09-13T18:56:02.867Z,51.50
2022-09-13T18:58:30.507Z,51.65
2022-09-13T19:01:07.844Z,51.23
2022-09-13T19:03:35.566Z,52.08
2022-09-13T19:06:11.970Z,51.99
2022-09-13T19:08:39.434Z,51.48
2022-09-13T19:11:06.592Z,52.72
2022-09-13T19:13:33.823Z,53.73
2022-09-13T19:16:01.884Z,53.29
2022-09-13T19:18:29.521Z,52.47
2022-09-13T19:21:03.069Z,53.92
2022-09-13T19:23:55.551Z,53.59
2022-09-13T19:26:23.989Z,53.09
2022-09-13T19:28:53.601Z,53.62
2022-09-13T19:31:23.689Z,53.66
2022-09-13T19:36:36.993Z,54.24
2022-09-13T19:39:04.485Z,52.95
2022-09-13T19:41:32.120Z,53.55
2022-09-13T19:44:00.558Z,54.27
2022-09-13T19:46:35.350Z,54.48
2022-09-13T19:49:02.934Z,53.80
2022-09-13T19:51:31.240Z,54.67
2022-09-13T19:53:59.003Z,53.98
2022-09-13T19:56:27.930Z,54.63
2022-09-13T19:58:55.403Z,54.49
2022-09-13T20:01:23.808Z,54.85
2022-09-13T20:03:56.508Z,55.99
2022-09-13T20:06:24.337Z,55.28
2022-09-13T20:08:52.235Z,54.59
2022-09-13T20:11:19.754Z,54.62
2022-09-13T20:13:48.400Z,55.51
2022-09-13T20:16:16.924Z,55.23
2022-09-13T20:18:44.282Z,55.14
2022-09-13T20:21:11.712Z,56.04
2022-09-13T20:23:39.830Z,54.86
2022-09-13T20:26:14.753Z,54.62
2022-09-13T20:28:42.329Z,55.14
2022-09-13T20:31:10.083Z,53.98
2022-09-13T20:33:39.311Z,54.03
2022-09-13T20:36:08.596Z,54.66
2022-09-13T20:38:35.695Z,53.74
2022-09-13T20:41:06.702Z,53.11
2022-09-13T20:43:34.466Z,53.54
2022-09-13T20:46:02.690Z,53.77
2022-09-13T20:48:29.620Z,53.99
2022-09-13T20:51:00.184Z,54.54
2022-09-13T20:53:27.374Z,54.62
2022-09-13T20:55:54.274Z,54.29
2022-09-13T20:58:22.176Z,54.53
2022-09-13T21:00:50.464Z,54.26
2022-09-13T21:03:17.154Z,54.55
2022-09-13T21:05:44.164Z,55.79
2022-09-13T21:08:32.786Z,55.04
2022-09-13T21:11:03.590Z,56.19
2022-09-13T21:13:30.853Z,57.09
2022-09-13T21:16:01.771Z,56.13
2022-09-13T21:18:29.394Z,54.74
2022-09-13T21:20:56.760Z,55.28
2022-09-13T21:23:23.543Z,54.95
2022-09-13T21:25:50.513Z,54.54
2022-09-13T21:28:17.982Z,56.40
2022-09-13T21:30:54.229Z,57.54
2022-09-13T21:33:21.230Z,56.44
2022-09-13T21:35:47.970Z,56.51
2022-09-13T21:38:14.636Z,56.21
2022-09-13T21:40:41.645Z,56.41
2022-09-13T21:43:08.319Z,56.03
2022-09-13T21:45:35.106Z,56.40
2022-09-13T21:48:02.362Z,56.53
2022-09-13T21:50:29.099Z,55.48
2022-09-13T21:52:56.426Z,55.83
2022-09-13T21:55:23.395Z,55.59
2022-09-13T21:57:50.114Z,55.06
2022-09-13T22:00:18.253Z,55.00
2022-09-13T22:02:45.425Z,55.83
2022-09-13T22:05:12.209Z,56.34
2022-09-13T22:07:39.000Z,56.10
2022-09-13T22:10:06.083Z,56.18
2022-09-13T22:12:32.795Z,55.76
2022-09-13T22:14:59.505Z,55.97
2022-09-13T22:17:26.801Z,55.02
2022-09-13T22:19:53.572Z,55.84
2022-09-13T22:22:20.499Z,56.16
2022-09-13T22:24:47.945Z,54.92
2022-09-13T22:27:14.702Z,55.00
2022-09-13T22:29:41.924Z,55.41
2022-09-13T22:32:08.966Z,54.85
2022-09-13T22:34:35.827Z,55.55
2022-09-13T22:37:03.513Z,55.61
2022-09-13T22:39:30.531Z,55.51
2022-09-13T22:41:57.264Z,55.21
2022-09-13T22:44:24.025Z,55.53
2022-09-13T22:46:51.071Z,55.44
2022-09-13T22:49:18.520Z,55.87
2022-09-13T22:51:45.661Z,56.28
2022-09-13T22:54:13.338Z,55.99
2022-09-13T22:56:40.079Z,55.84
2022-09-13T22:59:07.978Z,55.47
2022-09-13T23:01:35.606Z,56.02
2022-09-13T23:04:02.714Z,55.93
2022-09-13T23:06:29.668Z,56.30
2022-09-13T23:08:59.255Z,56.95
2022-09-13T23:11:27.183Z,56.80
2022-09-13T23:13:54.805Z,55.68
2022-09-13T23:16:32.385Z,56.61
2022-09-13T23:18:59.742Z,56.97
2022-09-13T23:21:28.516Z,56.82
2022-09-13T23:23:55.553Z,56.83
2022-09-13T23:26:22.850Z,56.94
2022-09-13T23:28:56.850Z,56.92
2022-09-13T23:31:24.506Z,56.27
2022-09-13T23:33:52.955Z,57.01
2022-09-13T23:36:20.977Z,57.59
2022-09-13T23:38:48.432Z,57.22
2022-09-13T23:41:16.410Z,58.12
2022-09-13T23:43:43.171Z,58.08
2022-09-13T23:46:10.585Z,56.87
2022-09-13T23:48:38.013Z,58.04
2022-09-13T23:51:06.043Z,58.29
2022-09-13T23:53:33.099Z,57.13
2022-09-13T23:56:00.169Z,57.45
2022-09-13T23:58:27.184Z,57.43
